createdAt,value
2023-02-09T00:01:24.420Z,11.13
2023-02-09T00:03:51.532Z,10.57
2023-02-09T00:06:19.784Z,9.50
2023-02-09T00:08:46.759Z,10.50
2023-02-09T00:11:19.516Z,9.77
2023-02-09T00:13:45.987Z,8.63
2023-02-09T00:16:12.935Z,9.93
2023-02-09T00:18:39.772Z,9.60
2023-02-09T00:21:09.534Z,9.50
2023-02-09T00:23:39.642Z,9.03
2023-02-09T00:26:09.464Z,9.63
2023-02-09T00:28:36.761Z,8.60
2023-02-09T00:31:08.723Z,9.73
2023-02-09T00:33:35.726Z,10.00
2023-02-09T00:36:04.872Z,9.00
2023-02-09T00:38:31.583Z,8.77
2023-02-09T00:40:58.072Z,8.60
2023-02-09T00:43:24.538Z,10.03
2023-02-09T00:45:51.104Z,9.37
2023-02-09T00:48:17.626Z,10.60
2023-02-09T00:50:44.568Z,8.13
2023-02-09T00:53:11.351Z,9.47
2023-02-09T00:55:38.007Z,10.00
2023-02-09T00:58:04.482Z,9.40
2023-02-09T01:00:30.975Z,9.93
2023-02-09T01:02:57.779Z,8.77
2023-02-09T01:05:24.371Z,8.77
2023-02-09T01:07:51.298Z,8.70
2023-02-09T01:10:17.858Z,9.77
2023-02-09T01:12:44.890Z,9.23
2023-02-09T01:15:12.172Z,8.87
2023-02-09T01:17:38.772Z,9.63
2023-02-09T01:20:07.316Z,9.40
2023-02-09T01:22:34.000Z,9.37
2023-02-09T01:25:00.521Z,8.53
2023-02-09T01:27:26.986Z,9.20
2023-02-09T01:29:53.466Z,9.80
2023-02-09T01:32:19.940Z,9.13
2023-02-09T01:34:50.645Z,9.90
2023-02-09T01:37:17.319Z,9.90
2023-02-09T01:39:43.896Z,9.93
2023-02-09T01:42:18.955Z,9.03
2023-02-09T01:44:45.348Z,9.93
2023-02-09T01:47:16.849Z,9.90
2023-02-09T01:49:44.995Z,9.87
2023-02-09T01:52:24.216Z,9.23
2023-02-09T01:55:02.953Z,11.40
2023-02-09T01:57:35.353Z,10.67
2023-02-09T02:00:07.878Z,9.40
2023-02-09T02:02:35.162Z,7.73
2023-02-09T02:05:02.357Z,9.73
2023-02-09T02:07:44.253Z,10.43
2023-02-09T02:10:11.297Z,8.80
2023-02-09T02:12:38.594Z,10.00
2023-02-09T02:15:05.995Z,9.70
2023-02-09T02:18:01.203Z,9.00
2023-02-09T02:20:59.392Z,7.30
2023-02-09T02:23:39.805Z,9.83
2023-02-09T02:26:20.699Z,9.50
2023-02-09T02:29:09.800Z,9.53
2023-02-09T02:31:36.268Z,9.03
2023-02-09T02:34:12.273Z,9.10
2023-02-09T02:37:01.796Z,8.70
2023-02-09T02:39:39.537Z,8.90
2023-02-09T02:42:29.721Z,8.60
2023-02-09T02:45:13.737Z,9.27
2023-02-09T02:47:42.718Z,8.67
2023-02-09T02:50:13.895Z,9.33
2023-02-09T02:52:44.007Z,9.90
2023-02-09T02:55:14.673Z,10.00
2023-02-09T02:57:44.561Z,9.60
2023-02-09T03:00:18.269Z,10.03
2023-02-09T03:02:51.735Z,8.70
2023-02-09T03:05:19.526Z,9.23
2023-02-09T03:07:46.057Z,9.93
2023-02-09T03:10:34.543Z,10.20
2023-02-09T03:13:07.924Z,8.73
2023-02-09T03:21:42.697Z,8.37
2023-02-09T03:24:28.133Z,10.07
2023-02-09T03:27:04.905Z,10.10
2023-02-09T03:29:31.757Z,9.30
2023-02-09T03:31:58.568Z,8.73
2023-02-09T03:34:26.620Z,8.93
2023-02-09T03:36:55.054Z,8.67
2023-02-09T03:39:22.124Z,8.70
2023-02-09T03:41:48.756Z,9.10
2023-02-09T03:44:27.354Z,8.60
2023-02-09T03:46:59.773Z,9.53
2023-02-09T03:49:28.131Z,8.73
2023-02-09T03:51:55.060Z,9.87
2023-02-09T03:54:21.745Z,8.73
2023-02-09T03:56:48.595Z,9.13
2023-02-09T03:59:15.116Z,9.60
2023-02-09T04:01:41.660Z,10.10
2023-02-09T04:04:08.690Z,11.20
2023-02-09T04:06:35.300Z,11.03
2023-02-09T04:09:03.557Z,9.77
2023-02-09T04:11:30.293Z,10.50
2023-02-09T04:13:57.335Z,11.93
2023-02-09T04:16:24.157Z,9.00
2023-02-09T04:18:50.891Z,9.70
2023-02-09T04:21:17.547Z,9.90
2023-02-09T04:23:44.125Z,9.93
2023-02-09T04:26:10.833Z,10.23
2023-02-09T04:28:37.341Z,9.83
2023-02-09T04:31:04.269Z,10.10
2023-02-09T04:33:31.230Z,10.20
2023-02-09T04:35:58.124Z,9.93
2023-02-09T04:38:25.943Z,10.37
2023-02-09T04:40:54.070Z,10.57
2023-02-09T04:43:20.881Z,10.07
2023-02-09T04:45:47.463Z,9.83
2023-02-09T04:48:23.424Z,10.70
2023-02-09T04:50:50.228Z,8.53
2023-02-09T04:53:17.084Z,9.50
2023-02-09T04:55:46.016Z,11.77
2023-02-09T04:58:33.214Z,10.70
2023-02-09T05:00:59.905Z,9.80
2023-02-09T05:03:26.568Z,9.43
2023-02-09T05:06:03.361Z,9.17
2023-02-09T05:08:30.241Z,10.00
2023-02-09T05:10:57.161Z,9.63
2023-02-09T05:13:25.608Z,11.07
2023-02-09T05:15:52.885Z,10.00
2023-02-09T05:18:19.643Z,10.70
2023-02-09T05:20:47.726Z,10.27
2023-02-09T05:23:14.489Z,10.63
2023-02-09T05:25:41.829Z,10.70
2023-02-09T05:28:08.912Z,10.83
2023-02-09T05:30:35.453Z,9.67
2023-02-09T05:33:03.177Z,9.13
2023-02-09T05:35:29.944Z,9.90
2023-02-09T05:37:56.785Z,9.80
2023-02-09T05:40:23.533Z,10.20
2023-02-09T05:42:50.080Z,11.50
2023-02-09T05:45:16.723Z,10.63
2023-02-09T05:47:44.093Z,10.30
2023-02-09T05:50:10.807Z,10.73
2023-02-09T05:52:37.320Z,11.47
2023-02-09T05:55:04.187Z,10.10
2023-02-09T05:57:30.767Z,11.13
2023-02-09T05:59:57.267Z,11.40
2023-02-09T06:02:23.805Z,14.27
2023-02-09T06:04:50.316Z,14.07
2023-02-09T06:07:16.851Z,12.90
2023-02-09T06:09:43.397Z,11.57
2023-02-09T06:12:09.952Z,10.83
2023-02-09T06:14:36.510Z,10.70
2023-02-09T06:17:02.979Z,11.30
2023-02-09T06:19:30.686Z,9.37
2023-02-09T06:21:57.279Z,10.33
2023-02-09T06:24:24.155Z,9.50
2023-02-09T06:26:50.652Z,10.33
2023-02-09T06:29:17.262Z,10.37
2023-02-09T06:31:44.147Z,10.13
2023-02-09T06:34:10.804Z,10.43
2023-02-09T06:36:37.295Z,10.30
2023-02-09T06:39:08.131Z,10.90
2023-02-09T06:41:34.800Z,10.30
2023-02-09T06:44:01.299Z,11.40
2023-02-09T06:46:28.684Z,10.80
2023-02-09T06:48:55.641Z,11.67
2023-02-09T06:51:22.325Z,11.13
2023-02-09T06:53:49.219Z,11.50
2023-02-09T06:56:16.046Z,11.67
2023-02-09T06:58:42.704Z,12.43
2023-02-09T07:01:12.769Z,11.17
2023-02-09T07:03:39.367Z,11.63
2023-02-09T07:06:11.888Z,11.17
2023-02-09T07:08:38.760Z,10.83
2023-02-09T07:11:08.549Z,11.10
2023-02-09T07:13:35.678Z,11.57
2023-02-09T07:16:03.837Z,11.37
2023-02-09T07:18:30.728Z,11.50
2023-02-09T07:21:08.724Z,11.33
2023-02-09T07:23:36.222Z,11.33
2023-02-09T07:26:08.293Z,11.03
2023-02-09T07:28:36.278Z,11.30
2023-02-09T07:31:05.190Z,11.50
2023-02-09T07:33:32.196Z,10.43
2023-02-09T07:35:59.238Z,12.07
2023-02-09T07:38:25.956Z,11.27
2023-02-09T07:40:53.221Z,11.03
2023-02-09T07:43:20.017Z,12.60
2023-02-09T07:45:46.954Z,11.90
2023-02-09T07:48:13.693Z,12.00
2023-02-09T07:50:40.674Z,12.37
2023-02-09T07:53:07.729Z,11.43
2023-02-09T07:55:34.328Z,11.90
2023-02-09T07:58:00.967Z,12.67
2023-02-09T08:00:27.625Z,11.63
2023-02-09T08:02:54.815Z,12.57
2023-02-09T08:05:27.158Z,11.70
2023-02-09T08:07:53.821Z,12.30
2023-02-09T08:10:20.423Z,11.60
2023-02-09T08:13:02.766Z,12.73
2023-02-09T08:15:42.546Z,12.83
2023-02-09T08:18:14.913Z,12.80
2023-02-09T08:20:42.503Z,13.73
2023-02-09T08:23:22.034Z,12.80
2023-02-09T08:25:51.464Z,13.83
2023-02-09T08:28:19.492Z,14.47
2023-02-09T08:30:47.225Z,12.17
2023-02-09T08:33:16.978Z,11.60
2023-02-09T08:35:43.981Z,12.43
2023-02-09T08:38:10.789Z,12.80
2023-02-09T08:40:41.451Z,12.00
2023-02-09T08:43:08.678Z,14.13
2023-02-09T08:45:37.050Z,12.83
2023-02-09T08:48:04.324Z,16.27
2023-02-09T08:50:30.848Z,12.53
2023-02-09T08:52:58.009Z,14.40
2023-02-09T08:55:24.753Z,13.93
2023-02-09T08:57:51.602Z,13.30
2023-02-09T09:00:18.617Z,13.30
2023-02-09T09:02:45.290Z,13.57
2023-02-09T09:05:12.046Z,13.40
2023-02-09T09:07:38.701Z,14.47
2023-02-09T09:10:05.945Z,14.33
2023-02-09T09:12:32.655Z,13.23
2023-02-09T09:14:59.326Z,12.73
2023-02-09T09:17:26.815Z,14.60
2023-02-09T09:19:55.863Z,12.20
2023-02-09T09:22:23.410Z,13.60
2023-02-09T09:24:50.000Z,13.90
2023-02-09T09:27:17.153Z,12.03
2023-02-09T09:29:43.918Z,12.13
2023-02-09T09:32:14.026Z,13.40
2023-02-09T09:34:41.242Z,12.77
2023-02-09T09:37:07.836Z,12.93
2023-02-09T09:39:34.460Z,12.80
2023-02-09T09:42:01.212Z,13.00
2023-02-09T09:44:31.924Z,15.40
2023-02-09T09:47:07.499Z,14.27
2023-02-09T09:49:35.070Z,13.80
2023-02-09T09:52:21.148Z,13.00
2023-02-09T09:54:47.687Z,13.23
2023-02-09T09:57:27.024Z,12.73
2023-02-09T09:59:54.931Z,14.17
2023-02-09T10:02:23.549Z,12.80
2023-02-09T10:04:50.398Z,12.77
2023-02-09T10:07:20.799Z,12.57
2023-02-09T10:09:56.030Z,12.23
2023-02-09T10:12:38.769Z,13.13
2023-02-09T10:15:27.905Z,13.43
2023-02-09T10:17:58.446Z,13.17
2023-02-09T10:20:44.418Z,13.33
2023-02-09T10:23:20.161Z,12.33
2023-02-09T10:26:16.872Z,13.17
2023-02-09T10:29:12.452Z,11.87
2023-02-09T10:31:42.598Z,13.47
2023-02-09T10:34:20.853Z,12.80
2023-02-09T10:36:51.951Z,12.63
2023-02-09T10:39:25.822Z,13.10
2023-02-09T10:41:54.681Z,13.27
2023-02-09T10:44:26.486Z,11.13
2023-02-09T10:47:27.117Z,12.40
2023-02-09T10:50:04.607Z,12.40
2023-02-09T10:52:34.215Z,11.40
2023-02-09T10:55:12.125Z,11.70
2023-02-09T10:57:38.929Z,11.63
2023-02-09T11:00:17.751Z,11.80
2023-02-09T11:02:54.302Z,11.03
2023-02-09T11:05:21.149Z,13.60
2023-02-09T11:08:10.951Z,12.07
2023-02-09T11:10:42.248Z,11.30
2023-02-09T11:13:21.712Z,11.80
2023-02-09T11:16:23.632Z,10.83
2023-02-09T11:19:07.197Z,10.47
2023-02-09T11:22:07.498Z,10.60
2023-02-09T11:24:42.934Z,11.90
2023-02-09T11:27:31.123Z,10.30
2023-02-09T11:30:17.492Z,11.40
2023-02-09T11:32:47.708Z,10.63
2023-02-09T11:35:18.982Z,10.90
2023-02-09T11:37:45.482Z,11.40
2023-02-09T11:40:22.370Z,10.50
2023-02-09T11:43:24.028Z,12.00
2023-02-09T11:45:52.543Z,11.53
2023-02-09T11:48:35.497Z,11.57
2023-02-09T11:51:12.011Z,10.40
2023-02-09T11:53:41.413Z,11.87
2023-02-09T11:56:11.090Z,10.30
2023-02-09T11:58:43.642Z,11.60
2023-02-09T12:01:16.810Z,11.47
2023-02-09T12:04:12.339Z,10.10
2023-02-09T12:06:43.357Z,9.80
2023-02-09T12:09:12.038Z,12.10
2023-02-09T12:11:59.912Z,10.93
2023-02-09T12:14:46.574Z,10.20
2023-02-09T12:17:20.892Z,9.90
2023-02-09T12:19:56.615Z,10.50
2023-02-09T12:22:35.481Z,9.33
2023-02-09T12:25:17.414Z,9.30
2023-02-09T12:28:17.449Z,10.20
2023-02-09T12:30:44.594Z,10.80
2023-02-09T12:33:23.384Z,9.87
2023-02-09T12:36:21.637Z,9.53
2023-02-09T12:38:55.993Z,10.50
2023-02-09T12:41:28.557Z,9.40
2023-02-09T12:44:10.404Z,10.10
2023-02-09T12:46:53.001Z,9.70
2023-02-09T12:49:28.773Z,10.13
2023-02-09T12:52:01.315Z,10.20
2023-02-09T12:54:48.181Z,10.27
2023-02-09T12:57:14.707Z,13.10
2023-02-09T12:59:55.140Z,10.40
2023-02-09T13:02:32.493Z,9.83
2023-02-09T13:05:19.392Z,8.90
2023-02-09T13:07:53.492Z,9.27
2023-02-09T13:10:37.776Z,10.40
2023-02-09T13:13:10.597Z,10.07
2023-02-09T13:15:55.379Z,10.93
2023-02-09T13:18:31.801Z,9.90
2023-02-09T13:21:33.816Z,8.80
2023-02-09T13:24:23.718Z,9.47
2023-02-09T13:26:51.588Z,9.23
2023-02-09T13:29:31.069Z,9.20
2023-02-09T13:32:16.061Z,9.03
2023-02-09T13:34:54.786Z,8.97
2023-02-09T13:37:50.313Z,9.60
2023-02-09T13:40:17.613Z,10.20
2023-02-09T13:42:58.747Z,9.90
2023-02-09T13:45:26.934Z,11.70
2023-02-09T13:47:55.403Z,9.23
2023-02-09T13:50:28.293Z,11.10
2023-02-09T13:53:09.139Z,10.50
2023-02-09T13:55:40.975Z,10.20
2023-02-09T13:58:09.464Z,10.70
2023-02-09T14:00:42.956Z,10.10
2023-02-09T14:03:16.834Z,9.50
2023-02-09T14:05:49.367Z,9.23
2023-02-09T14:08:16.757Z,10.70
2023-02-09T14:10:45.920Z,9.60
2023-02-09T14:13:26.988Z,9.87
2023-02-09T14:16:09.402Z,12.20
2023-02-09T14:18:58.365Z,10.80
2023-02-09T14:21:50.069Z,10.70
2023-02-09T14:24:19.653Z,10.57
2023-02-09T14:26:55.614Z,9.23
2023-02-09T14:29:32.638Z,10.27
2023-02-09T14:32:31.930Z,9.53
2023-02-09T14:35:09.000Z,8.40
2023-02-09T14:37:37.460Z,8.43
2023-02-09T14:40:07.169Z,8.20
2023-02-09T14:42:39.164Z,9.13
2023-02-09T14:45:25.950Z,9.27
2023-02-09T14:47:52.504Z,8.87
2023-02-09T14:50:21.987Z,8.80
2023-02-09T14:52:52.145Z,8.73
2023-02-09T14:55:30.003Z,8.77
2023-02-09T14:57:56.788Z,8.40
2023-02-09T15:00:25.641Z,10.03
2023-02-09T15:02:53.033Z,10.00
2023-02-09T15:05:21.170Z,9.60
2023-02-09T15:07:57.956Z,10.77
2023-02-09T15:10:33.197Z,10.80
2023-02-09T15:13:01.989Z,11.53
2023-02-09T15:15:29.075Z,10.20
2023-02-09T15:17:55.981Z,10.50
2023-02-09T15:20:26.298Z,10.83
2023-02-09T15:22:53.611Z,11.73
2023-02-09T15:25:20.400Z,10.93
2023-02-09T15:27:52.046Z,11.40
2023-02-09T15:30:30.902Z,11.20
2023-02-09T15:32:57.856Z,10.50
2023-02-09T15:35:26.125Z,10.07
2023-02-09T15:37:55.318Z,10.13
2023-02-09T15:40:49.673Z,11.23
2023-02-09T15:43:36.689Z,10.50
2023-02-09T15:46:03.891Z,11.13
2023-02-09T15:48:32.199Z,9.40
2023-02-09T15:50:59.182Z,10.67
2023-02-09T15:53:26.803Z,9.53
2023-02-09T15:55:54.468Z,9.73
2023-02-09T15:58:29.105Z,10.73
2023-02-09T16:01:01.552Z,10.73
2023-02-09T16:03:28.128Z,11.20
2023-02-09T16:06:01.833Z,10.43
2023-02-09T16:08:32.465Z,9.37
2023-02-09T16:10:59.851Z,10.67
2023-02-09T16:13:26.764Z,10.80
2023-02-09T16:15:53.632Z,10.07
2023-02-09T16:18:20.307Z,10.37
2023-02-09T16:20:50.415Z,10.33
2023-02-09T16:23:21.248Z,10.17
2023-02-09T16:25:50.755Z,10.30
2023-02-09T16:28:17.667Z,10.17
2023-02-09T16:30:55.873Z,10.17
2023-02-09T16:33:24.725Z,10.80
2023-02-09T16:35:57.217Z,10.47
2023-02-09T16:38:25.058Z,9.90
2023-02-09T16:40:52.682Z,10.87
2023-02-09T16:43:20.027Z,10.97
2023-02-09T16:46:02.392Z,10.30
2023-02-09T16:48:31.889Z,11.30
2023-02-09T16:50:58.825Z,10.00
2023-02-09T16:53:38.270Z,10.37
2023-02-09T16:56:10.019Z,10.87
2023-02-09T16:58:37.152Z,11.23
2023-02-09T17:01:04.130Z,11.00
2023-02-09T17:03:36.200Z,10.37
2023-02-09T17:06:03.221Z,11.93
2023-02-09T17:08:32.701Z,11.50
2023-02-09T17:11:01.280Z,10.87
2023-02-09T17:13:29.062Z,12.63
2023-02-09T17:15:59.413Z,11.37
2023-02-09T17:18:29.955Z,11.40
2023-02-09T17:21:05.320Z,11.20
2023-02-09T17:23:32.095Z,11.23
2023-02-09T17:25:58.968Z,12.13
2023-02-09T17:28:26.760Z,11.80
2023-02-09T17:30:57.420Z,13.10
2023-02-09T17:33:32.572Z,13.80
2023-02-09T17:38:47.069Z,14.03
2023-02-09T17:41:17.109Z,13.93
2023-02-09T17:43:44.127Z,14.40
2023-02-09T17:46:12.665Z,13.00
2023-02-09T17:48:39.505Z,12.63
2023-02-09T17:51:09.492Z,11.10
2023-02-09T17:53:36.374Z,11.60
2023-02-09T17:56:03.068Z,12.17
2023-02-09T17:58:29.663Z,12.83
2023-02-09T18:00:56.750Z,12.53
2023-02-09T18:03:25.895Z,13.53
2023-02-09T18:06:01.671Z,14.27
2023-02-09T18:08:28.459Z,15.40
2023-02-09T18:10:58.578Z,14.60
2023-02-09T18:13:27.028Z,15.10
2023-02-09T18:15:53.585Z,15.30
2023-02-09T18:18:22.023Z,14.00
2023-02-09T18:20:49.675Z,15.17
2023-02-09T18:23:16.643Z,14.67
2023-02-09T18:25:43.312Z,14.20
2023-02-09T18:28:09.861Z,14.30
2023-02-09T18:30:38.604Z,14.30
2023-02-09T18:33:06.801Z,13.47
2023-02-09T18:35:36.169Z,14.20
2023-02-09T18:38:04.286Z,14.10
2023-02-09T18:40:34.474Z,15.57
2023-02-09T18:43:04.328Z,15.20
2023-02-09T18:45:31.375Z,14.07
2023-02-09T18:47:58.056Z,15.17
2023-02-09T18:50:28.156Z,12.80
2023-02-09T18:52:57.251Z,14.33
2023-02-09T18:55:25.847Z,14.77
2023-02-09T18:57:52.561Z,13.17
2023-02-09T19:00:20.381Z,14.43
2023-02-09T19:02:49.563Z,14.13
2023-02-09T19:05:18.371Z,14.10
2023-02-09T19:07:47.073Z,13.93
2023-02-09T19:10:17.076Z,13.63
2023-02-09T19:12:45.261Z,14.20
2023-02-09T19:15:15.858Z,14.40
2023-02-09T19:17:42.617Z,13.97
2023-02-09T19:20:24.201Z,13.97
2023-02-09T19:22:53.652Z,13.80
2023-02-09T19:25:22.674Z,13.50
2023-02-09T19:27:49.265Z,13.30
2023-02-09T19:30:24.904Z,14.70
2023-02-09T19:32:52.790Z,16.53
2023-02-09T19:35:22.919Z,14.77
2023-02-09T19:37:54.386Z,14.83
2023-02-09T19:40:28.009Z,15.10
2023-02-09T19:42:56.150Z,15.00
2023-02-09T19:45:23.549Z,14.30
2023-02-09T19:47:50.337Z,15.23
2023-02-09T19:50:17.555Z,13.90
2023-02-09T19:52:47.444Z,16.37
2023-02-09T19:55:14.917Z,14.37
2023-02-09T19:57:42.693Z,14.30
2023-02-09T20:00:14.716Z,14.90
2023-02-09T20:02:41.473Z,15.60
2023-02-09T20:05:08.515Z,16.40
2023-02-09T20:07:35.162Z,15.17
2023-02-09T20:10:02.058Z,18.23
2023-02-09T20:12:28.723Z,17.93
2023-02-09T20:14:55.285Z,15.77
2023-02-09T20:17:22.536Z,17.90
2023-02-09T20:19:49.178Z,15.53
2023-02-09T20:22:15.782Z,17.37
2023-02-09T20:24:44.109Z,17.07
2023-02-09T20:27:11.240Z,18.10
2023-02-09T20:29:39.296Z,18.30
2023-02-09T20:32:06.251Z,18.23
2023-02-09T20:34:33.175Z,18.23
2023-02-09T20:36:59.804Z,20.00
2023-02-09T20:39:26.354Z,19.93
2023-02-09T20:42:16.564Z,21.83
2023-02-09T20:45:02.266Z,23.47
2023-02-09T20:47:30.105Z,21.03
2023-02-09T20:49:59.904Z,24.23
2023-02-09T20:52:28.703Z,23.20
2023-02-09T20:54:55.843Z,22.87
2023-02-09T20:57:29.276Z,24.53
2023-02-09T20:59:59.754Z,25.50
2023-02-09T21:02:27.144Z,25.93
2023-02-09T21:04:55.154Z,28.73
2023-02-09T21:07:21.801Z,26.33
2023-02-09T21:09:48.394Z,27.17
2023-02-09T21:12:15.025Z,27.50
2023-02-09T21:14:45.035Z,28.77
2023-02-09T21:17:12.442Z,27.97
2023-02-09T21:19:39.043Z,29.77
2023-02-09T21:22:06.251Z,30.03
2023-02-09T21:24:33.239Z,31.13
2023-02-09T21:27:02.983Z,31.70
2023-02-09T21:29:29.632Z,30.60
2023-02-09T21:31:56.476Z,31.10
2023-02-09T21:34:23.124Z,31.20
2023-02-09T21:36:49.652Z,32.00
2023-02-09T21:39:16.242Z,29.93
2023-02-09T21:42:01.354Z,30.50
2023-02-09T21:44:28.584Z,26.90
2023-02-09T21:46:55.222Z,28.47
2023-02-09T21:49:22.181Z,27.23
2023-02-09T21:51:48.896Z,26.53
2023-02-09T21:54:16.796Z,27.63
2023-02-09T21:56:43.414Z,27.20
2023-02-09T21:59:10.335Z,27.57
2023-02-09T22:01:37.561Z,26.83
2023-02-09T22:04:04.501Z,28.40
2023-02-09T22:06:31.501Z,27.73
2023-02-09T22:09:00.452Z,25.23
2023-02-09T22:11:27.180Z,25.60
2023-02-09T22:13:53.951Z,27.50
2023-02-09T22:16:22.355Z,26.87
2023-02-09T22:18:49.283Z,27.37
2023-02-09T22:21:16.601Z,26.37
2023-02-09T22:23:43.355Z,27.10
2023-02-09T22:26:10.598Z,27.67
2023-02-09T22:28:37.662Z,28.37
2023-02-09T22:31:13.135Z,27.00
2023-02-09T22:33:39.902Z,27.40
2023-02-09T22:36:08.164Z,28.33
2023-02-09T22:38:35.989Z,27.10
2023-02-09T22:41:07.509Z,28.40
2023-02-09T22:43:35.034Z,28.40
2023-02-09T22:46:01.796Z,27.23
2023-02-09T22:48:39.378Z,27.80
2023-02-09T22:51:06.459Z,29.00
2023-02-09T22:53:33.828Z,29.53
2023-02-09T22:56:04.847Z,31.83
2023-02-09T22:58:31.712Z,29.10
2023-02-09T23:00:58.246Z,29.77
2023-02-09T23:03:24.870Z,28.47
2023-02-09T23:05:51.525Z,30.03
2023-02-09T23:08:18.030Z,31.13
2023-02-09T23:10:44.538Z,28.60
2023-02-09T23:13:11.236Z,29.20
2023-02-09T23:15:38.008Z,29.33
2023-02-09T23:18:04.752Z,27.30
2023-02-09T23:20:31.294Z,32.37
2023-02-09T23:23:01.390Z,33.90
2023-02-09T23:25:28.599Z,29.67
2023-02-09T23:27:55.230Z,32.70
2023-02-09T23:30:21.876Z,28.67
2023-02-09T23:32:49.355Z,30.53
2023-02-09T23:35:17.554Z,29.73
2023-02-09T23:37:44.173Z,30.93
2023-02-09T23:40:11.196Z,30.90
2023-02-09T23:42:37.780Z,30.63
2023-02-09T23:45:06.380Z,30.50
2023-02-09T23:47:33.027Z,31.40
2023-02-09T23:49:59.508Z,31.27
2023-02-09T23:52:26.072Z,30.40
2023-02-09T23:54:52.630Z,31.97
2023-02-09T23:57:20.170Z,32.37
2023-02-09T23:59:46.891Z,32.00
